Time;durP1;ratioP1;P1;durP2;ratioP2;P2;SDS_P1;SDS_P2;PMS_P1;PMS_P2;Temp;Humidity;BMP_temperature;BMP_pressure;BME280_temperature;BME280_humidity;BME280_pressure;Samples;Min_cycle;Max_cycle;Signal;HPM_P1;HPM_P2
2024/01/28 00:00:27;;;;;;;13.60;5.28;;;;;;;1.82;100.00;103499.06;7403327;19;19921;-78
2024/01/28 00:02:58;;;;;;;14.20;4.85;;;;;;;1.85;100.00;103500.75;7403117;19;19922;-78
2024/01/28 00:05:27;;;;;;;11.57;4.82;;;;;;;1.86;100.00;103498.94;7402958;19;19927;-77
2024/01/28 00:07:57;;;;;;;9.15;4.57;;;;;;;1.85;100.00;103503.41;7404061;19;20352;-77
2024/01/28 00:10:29;;;;;;;10.50;5.80;;;;;;;1.83;100.00;103508.78;7403789;19;19929;-78
2024/01/28 00:12:58;;;;;;;12.85;5.07;;;;;;;1.77;100.00;103514.31;7408409;19;19940;-77
2024/01/28 00:15:28;;;;;;;15.05;4.50;;;;;;;1.75;100.00;103502.00;7411564;19;19921;-77
2024/01/28 00:17:58;;;;;;;10.40;4.70;;;;;;;1.70;100.00;103496.00;7406418;19;19925;-78
2024/01/28 00:20:27;;;;;;;14.38;5.13;;;;;;;1.67;100.00;103488.16;7403420;19;19994;-77
2024/01/28 00:22:57;;;;;;;11.25;5.13;;;;;;;1.67;100.00;103488.16;7402366;19;19922;-77
2024/01/28 00:25:29;;;;;;;12.75;4.43;;;;;;;1.64;100.00;103480.28;7402944;19;19929;-77
2024/01/28 00:27:58;;;;;;;13.02;5.47;;;;;;;1.59;100.00;103472.50;7402462;19;19934;-78
2024/01/28 00:30:32;;;;;;;10.13;4.40;;;;;;;1.58;100.00;103472.53;7403259;19;19926;-78
2024/01/28 00:33:01;;;;;;;12.70;4.45;;;;;;;1.57;100.00;103463.69;7401515;19;19923;-77
2024/01/28 00:35:31;;;;;;;11.20;5.22;;;;;;;1.56;100.00;103464.59;7402960;19;20375;-77
2024/01/28 00:38:00;;;;;;;13.05;5.32;;;;;;;1.52;100.00;103460.34;7401610;19;19937;-78
2024/01/28 00:40:32;;;;;;;12.60;4.72;;;;;;;1.51;100.00;103466.56;7402657;19;20295;-77
2024/01/28 00:43:02;;;;;;;10.90;4.90;;;;;;;1.48;100.00;103465.81;7401041;19;19968;-77
2024/01/28 00:45:32;;;;;;;7.15;4.00;;;;;;;1.46;100.00;103462.34;7402159;19;19919;-78
2024/01/28 00:48:01;;;;;;;11.50;4.43;;;;;;;1.44;100.00;103473.03;7400633;19;19915;-78
2024/01/28 00:50:31;;;;;;;11.75;4.45;;;;;;;1.44;100.00;103469.50;7400332;19;19922;-77
2024/01/28 00:53:01;;;;;;;15.05;5.28;;;;;;;1.44;100.00;103462.41;7401586;19;19922;-78
2024/01/28 00:55:33;;;;;;;15.07;4.63;;;;;;;1.46;100.00;103467.66;7401440;19;19923;-75
2024/01/28 00:58:04;;;;;;;8.90;4.35;;;;;;;1.47;100.00;103464.94;7401517;19;19914;-77
2024/01/28 01:00:34;;;;;;;12.93;4.55;;;;;;;1.46;100.00;103462.34;7400364;19;19954;-77
2024/01/28 01:03:03;;;;;;;12.82;5.28;;;;;;;1.44;100.00;103457.09;7402294;19;19930;-78
2024/01/28 01:05:34;;;;;;;13.52;4.47;;;;;;;1.45;100.00;103461.47;7400320;19;19929;-77
2024/01/28 01:08:03;;;;;;;11.60;4.13;;;;;;;1.45;100.00;103472.09;7401825;19;19930;-76
2024/01/28 01:10:35;;;;;;;11.50;4.53;;;;;;;1.42;100.00;103460.72;7400640;19;19921;-76
2024/01/28 01:13:05;;;;;;;13.52;4.53;;;;;;;1.37;100.00;103452.94;7401228;19;19915;-75
2024/01/28 01:15:34;;;;;;;8.73;4.43;;;;;;;1.33;100.00;103454.84;7400122;19;19929;-75
2024/01/28 01:18:03;;;;;;;7.07;3.97;;;;;;;1.31;100.00;103454.00;7399953;19;19942;-75
2024/01/28 01:20:33;;;;;;;13.57;4.97;;;;;;;1.34;100.00;103458.31;7401351;19;19933;-75
2024/01/28 01:23:02;;;;;;;12.68;3.92;;;;;;;1.35;100.00;103460.94;7399957;19;19922;-76
2024/01/28 01:25:34;;;;;;;11.95;4.35;;;;;;;1.37;100.00;103463.56;7400670;19;19924;-74
2024/01/28 01:28:03;;;;;;;12.98;5.55;;;;;;;1.38;100.00;103444.88;7398146;19;19918;-75
2024/01/28 01:30:33;;;;;;;12.07;4.80;;;;;;;1.40;100.00;103446.63;7398695;19;19958;-75
2024/01/28 01:33:02;;;;;;;10.57;4.70;;;;;;;1.39;100.00;103440.44;7401037;19;19914;-75
2024/01/28 01:35:32;;;;;;;11.02;5.07;;;;;;;1.40;100.00;103436.88;7400422;19;19926;-75
2024/01/28 01:38:02;;;;;;;12.27;5.68;;;;;;;1.40;100.00;103452.81;7400157;19;19922;-75
2024/01/28 01:40:31;;;;;;;13.20;5.00;;;;;;;1.40;100.00;103443.97;7400197;19;19952;-75
2024/01/28 01:43:09;;;;;;;8.57;4.13;;;;;;;1.39;100.00;103445.75;7399237;19;19914;-74
2024/01/28 01:45:40;;;;;;;;;;;;;;;1.33;100.00;103444.22;7402783;19;19922;-75
2024/01/28 01:48:12;;;;;;;12.65;5.07;;;;;;;1.36;100.00;103448.53;7398512;19;19937;-76
2024/01/28 01:50:43;;;;;;;8.93;4.65;;;;;;;1.35;100.00;103442.34;7400307;19;19925;-75
2024/01/28 01:53:12;;;;;;;14.52;4.80;;;;;;;1.35;100.00;103436.16;7399405;19;19978;-76
2024/01/28 01:55:42;;;;;;;8.40;3.60;;;;;;;1.35;100.00;103434.38;7399684;19;20288;-76
2024/01/28 01:58:14;;;;;;;8.77;4.50;;;;;;;1.33;100.00;103430.06;7399146;19;20286;-75
2024/01/28 02:00:43;;;;;;;8.75;4.78;;;;;;;1.32;100.00;103428.31;7402713;19;20032;-75
2024/01/28 02:03:11;;;;;;;9.65;4.57;;;;;;;1.32;100.00;103415.03;7404825;19;19918;-76
2024/01/28 02:05:41;;;;;;;10.30;4.95;;;;;;;1.31;100.00;103414.16;7405552;19;19926;-75
2024/01/28 02:08:10;;;;;;;9.43;4.47;;;;;;;1.31;100.00;103406.19;7405630;19;19961;-76
2024/01/28 02:10:39;;;;;;;13.45;4.75;;;;;;;1.29;100.00;103408.06;7404956;19;19939;-76
2024/01/28 02:13:07;;;;;;;10.95;5.15;;;;;;;1.29;100.00;103401.88;7404777;19;19921;-76
2024/01/28 02:15:41;;;;;;;10.85;4.63;;;;;;;1.27;100.00;103393.09;7403727;19;19919;-76
2024/01/28 02:18:10;;;;;;;10.57;4.80;;;;;;;1.23;100.00;103387.03;7405093;19;19923;-76
2024/01/28 02:20:38;;;;;;;10.07;4.28;;;;;;;1.20;100.00;103380.97;7405976;19;19915;-75
2024/01/28 02:23:07;;;;;;;11.32;4.72;;;;;;;1.15;100.00;103374.97;7404828;19;19927;-76
2024/01/28 02:25:38;;;;;;;11.38;4.60;;;;;;;1.11;100.00;103365.38;7405171;19;19932;-76
2024/01/28 02:28:08;;;;;;;9.52;4.93;;;;;;;1.09;100.00;103357.44;7405430;19;20379;-76
2024/01/28 02:30:36;;;;;;;11.82;5.15;;;;;;;1.11;100.00;103357.41;7406410;19;19918;-76
2024/01/28 02:33:05;;;;;;;10.63;4.85;;;;;;;1.13;100.00;103355.56;7408356;19;19952;-76
2024/01/28 02:35:34;;;;;;;10.75;4.55;;;;;;;1.14;100.00;103363.47;7412276;19;19923;-76
2024/01/28 02:38:22;;;;;;;10.43;4.97;;;;;;;1.16;100.00;103364.28;7403995;19;19919;-75
2024/01/28 02:40:55;;;;;;;12.80;5.43;;;;;;;1.20;100.00;103357.94;7406287;19;19915;-77
2024/01/28 02:43:24;;;;;;;8.32;4.63;;;;;;;1.25;100.00;103365.75;7405193;19;19919;-76
2024/01/28 02:45:52;;;;;;;9.75;5.53;;;;;;;1.25;100.00;103365.75;7404447;19;19926;-76
2024/01/28 02:48:22;;;;;;;11.02;4.78;;;;;;;1.25;100.00;103361.28;7404290;19;20268;-75
2024/01/28 02:50:51;;;;;;;14.60;5.57;;;;;;;1.27;100.00;103366.53;7404585;19;19922;-76
2024/01/28 02:53:21;;;;;;;10.13;4.82;;;;;;;1.28;100.00;103357.66;7405123;19;20340;-75
2024/01/28 02:55:50;;;;;;;9.90;4.63;;;;;;;1.30;100.00;103345.19;7403566;19;19922;-75
2024/01/28 02:58:22;;;;;;;16.88;4.60;;;;;;;1.30;100.00;103351.34;7404599;19;20259;-75
2024/01/28 03:00:52;;;;;;;12.02;5.63;;;;;;;1.32;100.00;103352.19;7403962;19;19915;-76
2024/01/28 03:03:22;;;;;;;16.98;5.60;;;;;;;1.32;100.00;103338.03;7404486;19;19926;-76
2024/01/28 03:05:51;;;;;;;15.02;5.70;;;;;;;1.33;100.00;103342.44;7404576;19;19926;-76
2024/01/28 03:08:20;;;;;;;13.98;4.85;;;;;;;1.35;100.00;103344.09;7403708;19;20274;-76
2024/01/28 03:10:50;;;;;;;15.05;5.65;;;;;;;1.38;100.00;103347.56;7403632;19;20347;-76
2024/01/28 03:13:22;;;;;;;9.43;5.72;;;;;;;1.38;100.00;103338.66;7402518;19;19927;-76
2024/01/28 03:15:52;;;;;;;10.70;5.50;;;;;;;1.41;100.00;103336.81;7403002;19;19925;-76
2024/01/28 03:18:22;;;;;;;15.43;5.57;;;;;;;1.41;100.00;103334.16;7403130;19;19925;-75
2024/01/28 03:20:52;;;;;;;12.95;5.35;;;;;;;1.41;100.00;103334.16;7404287;19;19915;-76
2024/01/28 03:23:21;;;;;;;12.15;5.60;;;;;;;1.42;100.00;103333.25;7403004;19;19914;-76
2024/01/28 03:25:51;;;;;;;11.30;5.20;;;;;;;1.42;100.00;103328.81;7403931;19;19947;-76
2024/01/28 03:28:23;;;;;;;13.05;5.15;;;;;;;1.44;100.00;103320.75;7403567;19;19929;-76
2024/01/28 03:30:52;;;;;;;11.85;4.85;;;;;;;1.43;100.00;103324.34;7404351;19;19918;-76
2024/01/28 03:33:22;;;;;;;9.40;5.32;;;;;;;1.44;100.00;103318.09;7403535;19;19910;-75
2024/01/28 03:35:51;;;;;;;14.88;5.88;;;;;;;1.46;100.00;103319.81;7403426;19;19933;-76
2024/01/28 03:38:21;;;;;;;12.48;4.88;;;;;;;1.48;100.00;103315.28;7403587;19;19922;-76
2024/01/28 03:40:50;;;;;;;13.93;5.20;;;;;;;1.49;100.00;103310.84;7402698;19;19915;-76
2024/01/28 03:43:22;;;;;;;10.98;5.88;;;;;;;1.50;100.00;103312.56;7404255;19;19926;-76
2024/01/28 03:45:52;;;;;;;11.63;6.28;;;;;;;1.49;100.00;103308.19;7403246;19;19938;-76
2024/01/28 03:48:21;;;;;;;12.15;5.32;;;;;;;1.47;100.00;103302.91;7403965;19;20351;-76
2024/01/28 03:50:50;;;;;;;13.35;5.50;;;;;;;1.46;100.00;103308.31;7402946;19;19923;-76
2024/01/28 03:53:20;;;;;;;14.95;4.90;;;;;;;1.44;100.00;103304.81;7402561;19;19923;-76
2024/01/28 03:55:49;;;;;;;8.90;4.68;;;;;;;1.44;100.00;103294.22;7402171;19;19911;-76
2024/01/28 03:58:19;;;;;;;10.85;5.05;;;;;;;1.44;100.00;103296.84;7403794;19;20263;-77
2024/01/28 04:00:51;;;;;;;13.13;5.43;;;;;;;1.41;100.00;103291.69;7402454;19;19911;-77
2024/01/28 04:03:20;;;;;;;;;;;;;;;1.31;100.00;103297.34;7406181;19;20268;-76
2024/01/28 04:05:50;;;;;;;11.18;5.05;;;;;;;1.34;100.00;103299.00;7403378;19;19922;-76
2024/01/28 04:08:20;;;;;;;10.45;5.20;;;;;;;1.33;100.00;103302.59;7403355;19;19918;-76
2024/01/28 04:10:49;;;;;;;14.10;6.03;;;;;;;1.31;100.00;103300.00;7403394;19;19929;-76
2024/01/28 04:13:18;;;;;;;11.43;6.45;;;;;;;1.30;100.00;103308.00;7402297;19;19915;-76
2024/01/28 04:15:50;;;;;;;9.75;5.00;;;;;;;1.29;100.00;103306.28;7401054;19;19919;-76
2024/01/28 04:18:20;;;;;;;14.68;5.30;;;;;;;1.29;100.00;103301.00;7402604;19;19922;-76
2024/01/28 04:20:49;;;;;;;14.20;5.40;;;;;;;1.29;100.00;103301.00;7403304;19;20364;-76
2024/01/28 04:23:19;;;;;;;9.88;5.55;;;;;;;1.27;100.00;103308.13;7401970;19;19940;-76
2024/01/28 04:25:48;;;;;;;8.98;4.72;;;;;;;1.21;100.00;103298.59;7403116;19;19926;-77
2024/01/28 04:28:17;;;;;;;9.95;5.10;;;;;;;1.17;100.00;103294.31;7401373;19;19925;-76
2024/01/28 04:30:47;;;;;;;9.32;5.07;;;;;;;1.15;100.00;103297.97;7402560;19;20233;-76
2024/01/28 04:33:19;;;;;;;12.07;5.20;;;;;;;1.14;100.00;103298.88;7402567;19;19914;-76
2024/01/28 04:35:48;;;;;;;9.07;5.70;;;;;;;1.15;100.00;103301.50;7402331;19;19934;-76
2024/01/28 04:38:18;;;;;;;12.27;4.25;;;;;;;1.16;100.00;103299.72;7401417;19;19922;-76
2024/01/28 04:40:47;;;;;;;8.48;4.53;;;;;;;1.16;100.00;103302.38;7402002;19;20550;-76
2024/01/28 04:43:17;;;;;;;13.25;5.30;;;;;;;1.14;100.00;103293.56;7402717;19;19929;-76
2024/01/28 04:45:46;;;;;;;10.73;5.10;;;;;;;1.12;100.00;103303.41;7401641;19;19918;-76
2024/01/28 04:48:18;;;;;;;15.52;5.13;;;;;;;1.11;100.00;103301.66;7402553;19;19923;-76
2024/01/28 04:50:48;;;;;;;15.20;5.35;;;;;;;1.10;100.00;103290.19;7403779;19;20332;-76
2024/01/28 04:53:17;;;;;;;9.25;5.07;;;;;;;1.09;100.00;103279.59;7408385;19;19926;-77
2024/01/28 04:55:47;;;;;;;12.02;5.95;;;;;;;1.07;100.00;103268.19;7407104;19;19923;-76
2024/01/28 04:58:16;;;;;;;8.73;4.82;;;;;;;1.03;100.00;103271.91;7401434;19;19926;-76
2024/01/28 05:00:46;;;;;;;7.43;4.45;;;;;;;1.00;100.00;103277.28;7401690;19;19914;-76
2024/01/28 05:03:15;;;;;;;12.82;6.20;;;;;;;0.97;100.00;103267.66;7401581;19;19919;-76
2024/01/28 05:05:47;;;;;;;8.80;4.90;;;;;;;0.95;100.00;103255.38;7400146;19;19925;-76
2024/01/28 05:08:16;;;;;;;13.05;5.32;;;;;;;0.90;100.00;103251.13;7400428;19;19926;-76
2024/01/28 05:10:45;;;;;;;13.43;4.57;;;;;;;0.86;100.00;103240.69;7401525;19;19915;-76
2024/01/28 05:13:13;;;;;;;9.15;5.00;;;;;;;0.83;100.00;103233.69;7401207;19;19939;-76
2024/01/28 05:15:42;;;;;;;13.52;5.72;;;;;;;0.80;100.00;103231.16;7401153;19;19927;-76
2024/01/28 05:18:11;;;;;;;12.23;4.80;;;;;;;0.76;100.00;103232.19;7400221;19;20376;-77
2024/01/28 05:20:40;;;;;;;9.88;5.75;;;;;;;0.73;100.00;103228.78;7400487;19;19923;-76
2024/01/28 05:23:11;;;;;;;11.40;5.50;;;;;;;0.72;100.00;103235.00;7400007;19;19923;-77
2024/01/28 05:25:40;;;;;;;13.55;5.10;;;;;;;0.69;100.00;103241.25;7401585;19;20276;-76
2024/01/28 05:28:10;;;;;;;14.50;5.78;;;;;;;0.68;100.00;103239.56;7399608;19;19922;-76
2024/01/28 05:30:38;;;;;;;12.40;5.65;;;;;;;0.65;100.00;103244.13;7401361;19;19916;-77
2024/01/28 05:33:07;;;;;;;13.23;5.20;;;;;;;0.62;100.00;103239.75;7400327;19;19942;-76
2024/01/28 05:35:36;;;;;;;12.13;5.57;;;;;;;0.60;100.00;103251.38;7404171;19;19955;-76
2024/01/28 05:38:05;;;;;;;11.43;5.55;;;;;;;0.59;100.00;103250.50;7405596;19;19936;-76
2024/01/28 05:40:36;;;;;;;11.73;5.35;;;;;;;0.60;100.00;103251.38;7406596;19;19926;-76
2024/01/28 05:43:05;;;;;;;8.85;5.13;;;;;;;0.57;100.00;103241.72;7406265;19;19954;-76
2024/01/28 05:45:34;;;;;;;11.82;5.63;;;;;;;0.57;100.00;103241.72;7406556;19;19919;-76
2024/01/28 05:48:03;;;;;;;11.10;5.05;;;;;;;0.56;100.00;103239.97;7405890;19;19952;-76
2024/01/28 05:50:32;;;;;;;14.50;6.35;;;;;;;0.54;100.00;103236.53;7406472;19;19949;-76
2024/01/28 05:53:00;;;;;;;10.98;4.95;;;;;;;0.51;100.00;103230.47;7406232;19;19915;-76
2024/01/28 05:55:29;;;;;;;11.70;4.68;;;;;;;0.52;100.00;103227.75;7405364;19;20564;-77
2024/01/28 05:58:00;;;;;;;12.18;5.65;;;;;;;0.53;100.00;103229.47;7406359;19;19938;-76
2024/01/28 06:00:29;;;;;;;14.93;5.70;;;;;;;0.50;100.00;103224.31;7405326;19;19918;-77
2024/01/28 06:02:58;;;;;;;10.88;5.55;;;;;;;0.49;100.00;103219.91;7406459;19;19918;-76
2024/01/28 06:05:26;;;;;;;8.30;4.78;;;;;;;0.47;100.00;103224.41;7405063;19;19922;-76
2024/01/28 06:07:56;;;;;;;12.70;5.72;;;;;;;0.46;100.00;103212.06;7406416;19;19914;-76
2024/01/28 06:10:25;;;;;;;9.00;5.22;;;;;;;0.44;100.00;103213.91;7404877;19;19918;-76
2024/01/28 06:12:55;;;;;;;10.32;5.28;;;;;;;0.40;100.00;103210.50;7405574;19;19918;-76
2024/01/28 06:15:27;;;;;;;12.77;6.05;;;;;;;0.39;100.00;103202.59;7404513;19;19918;-76
2024/01/28 06:17:56;;;;;;;12.38;5.03;;;;;;;0.37;100.00;103210.63;7405101;19;20249;-76
2024/01/28 06:20:26;;;;;;;14.40;5.28;;;;;;;0.36;100.00;103206.22;7405031;19;19925;-76
2024/01/28 06:22:55;;;;;;;7.75;4.93;;;;;;;0.36;100.00;103215.97;7405679;19;19914;-76
2024/01/28 06:25:25;;;;;;;12.68;5.25;;;;;;;0.33;100.00;103211.66;7405139;19;19919;-76
2024/01/28 06:27:54;;;;;;;11.40;5.65;;;;;;;0.36;100.00;103210.66;7405933;19;20344;-76
2024/01/28 06:30:27;;;;;;;10.50;4.68;;;;;;;0.36;100.00;103211.53;7405282;19;20631;-76
2024/01/28 06:32:57;;;;;;;10.68;4.75;;;;;;;0.37;100.00;103215.91;7405240;19;20583;-76
2024/01/28 06:35:26;;;;;;;12.10;5.10;;;;;;;0.37;100.00;103223.00;7405265;19;20382;-76
2024/01/28 06:37:56;;;;;;;7.47;4.78;;;;;;;0.38;100.00;103227.41;7405139;19;19918;-76
2024/01/28 06:40:25;;;;;;;8.90;4.95;;;;;;;0.40;100.00;103225.53;7405431;19;19918;-76
2024/01/28 06:42:54;;;;;;;13.40;4.70;;;;;;;0.40;100.00;103223.75;7404598;19;19926;-76
2024/01/28 06:45:26;;;;;;;11.90;4.75;;;;;;;0.40;100.00;103225.53;7404964;19;19923;-76
2024/01/28 06:47:56;;;;;;;11.80;4.50;;;;;;;0.40;100.00;103217.59;7401684;19;19911;-76
2024/01/28 06:50:26;;;;;;;10.45;4.47;;;;;;;0.40;100.00;103226.41;7403066;19;19955;-76
2024/01/28 06:52:58;;;;;;;11.52;4.28;;;;;;;0.40;100.00;103214.94;7404899;19;20359;-76
2024/01/28 06:55:27;;;;;;;12.20;4.45;;;;;;;0.37;100.00;103220.34;7404221;19;19923;-76
2024/01/28 06:57:57;;;;;;;12.80;4.22;;;;;;;0.38;100.00;103224.75;7404639;19;20341;-76
2024/01/28 07:00:29;;;;;;;11.57;4.25;;;;;;;0.37;100.00;103212.41;7404466;19;19925;-76
2024/01/28 07:02:58;;;;;;;9.68;4.10;;;;;;;0.36;100.00;103215.97;7404060;19;20286;-76
2024/01/28 07:05:28;;;;;;;11.30;4.45;;;;;;;0.34;100.00;103205.44;7404024;19;19918;-76
2024/01/28 07:07:57;;;;;;;12.70;5.20;;;;;;;0.33;100.00;103213.44;7406892;19;19919;-76
2024/01/28 07:10:27;;;;;;;16.02;4.55;;;;;;;0.31;100.00;103208.16;7417265;19;19917;-76
2024/01/28 07:12:56;;;;;;;11.68;4.78;;;;;;;0.30;100.00;103201.13;7414783;19;20353;-75
2024/01/28 07:15:28;;;;;;;6.97;3.90;;;;;;;0.28;100.00;103188.84;7410276;19;20237;-76
2024/01/28 07:17:58;;;;;;;;;;;;;;;0.19;100.00;103189.19;7406216;19;19915;-76
2024/01/28 07:20:27;;;;;;;6.57;3.47;;;;;;;0.18;100.00;103195.38;7403757;19;19915;-76
2024/01/28 07:22:57;;;;;;;8.20;4.32;;;;;;;0.16;100.00;103190.16;7403684;19;19926;-76
2024/01/28 07:25:26;;;;;;;7.25;4.25;;;;;;;0.14;100.00;103194.63;7403771;19;19918;-75
2024/01/28 07:27:56;;;;;;;11.75;4.53;;;;;;;0.14;100.00;103204.38;7404073;19;19970;-76
2024/01/28 07:30:25;;;;;;;10.73;4.38;;;;;;;0.13;100.00;103203.50;7404583;19;19923;-76
2024/01/28 07:32:57;;;;;;;8.18;4.45;;;;;;;0.12;100.00;103206.22;7403176;19;19941;-76
2024/01/28 07:35:26;;;;;;;10.27;4.55;;;;;;;0.11;100.00;103215.09;7403459;19;19914;-75
2024/01/28 07:37:56;;;;;;;11.02;4.35;;;;;;;0.10;100.00;103208.91;7403359;19;19930;-76
2024/01/28 07:40:25;;;;;;;9.63;3.92;;;;;;;0.11;100.00;103200.06;7404272;19;20276;-76
2024/01/28 07:42:55;;;;;;;12.38;4.15;;;;;;;0.09;100.00;103201.88;7402974;19;20349;-75
2024/01/28 07:45:25;;;;;;;11.70;4.30;;;;;;;0.08;100.00;103197.53;7402662;19;19926;-76
2024/01/28 07:47:53;;;;;;;13.65;4.90;;;;;;;0.10;100.00;103202.75;7403048;19;20351;-75
2024/01/28 07:50:25;;;;;;;6.97;3.78;;;;;;;0.09;100.00;103201.88;7403370;19;20329;-76
2024/01/28 07:52:53;;;;;;;11.98;4.68;;;;;;;0.08;100.00;103196.66;7403302;19;19922;-76
2024/01/28 07:55:22;;;;;;;11.77;4.43;;;;;;;0.09;100.00;103199.22;7403181;19;19944;-75
2024/01/28 07:57:50;;;;;;;10.05;4.40;;;;;;;0.10;100.00;103193.03;7402405;19;19957;-76
2024/01/28 08:00:20;;;;;;;11.60;4.30;;;;;;;0.13;100.00;103197.38;7404083;19;20277;-76
2024/01/28 08:02:49;;;;;;;13.30;4.32;;;;;;;0.16;100.00;103189.28;7402935;19;19919;-76
2024/01/28 08:05:17;;;;;;;12.60;4.53;;;;;;;0.18;100.00;103192.75;7403036;19;19947;-75
2024/01/28 08:07:49;;;;;;;9.60;3.88;;;;;;;0.24;100.00;103189.88;7403499;19;19947;-76
2024/01/28 08:10:17;;;;;;;8.20;3.67;;;;;;;0.28;100.00;103191.50;7402487;19;20260;-76
2024/01/28 08:12:46;;;;;;;12.32;3.97;;;;;;;0.31;100.00;103186.09;7403530;19;19914;-76
2024/01/28 08:15:15;;;;;;;7.60;4.15;;;;;;;0.34;100.00;103186.88;7402093;19;19914;-76
2024/01/28 08:17:44;;;;;;;7.80;3.53;;;;;;;0.38;100.00;103185.84;7402702;19;19923;-76
2024/01/28 08:20:13;;;;;;;9.20;3.78;;;;;;;0.43;100.00;103178.56;7402238;19;19926;-76
2024/01/28 08:22:42;;;;;;;9.77;3.85;;;;;;;0.45;100.00;103175.88;7402170;19;19959;-76
2024/01/28 08:25:14;;;;;;;8.68;4.30;;;;;;;0.50;100.00;103168.63;7402119;19;19937;-76
2024/01/28 08:27:44;;;;;;;9.07;4.13;;;;;;;0.52;100.00;103168.56;7403285;19;19926;-76
2024/01/28 08:30:15;;;;;;;8.93;3.60;;;;;;;0.53;100.00;103163.19;7401897;19;19922;-76
2024/01/28 08:32:43;;;;;;;8.70;3.55;;;;;;;0.59;100.00;103160.31;7403086;19;19978;-76
2024/01/28 08:35:13;;;;;;;7.20;3.33;;;;;;;0.69;100.00;103164.34;7402967;19;19922;-76
2024/01/28 08:37:42;;;;;;;12.50;3.63;;;;;;;0.75;100.00;103166.78;7402588;19;19919;-76
2024/01/28 08:40:14;;;;;;;7.60;3.72;;;;;;;0.81;100.00;103163.91;7402460;19;19974;-76
2024/01/28 08:42:43;;;;;;;5.97;3.30;;;;;;;0.88;100.00;103161.88;7401829;19;20289;-76
2024/01/28 08:45:12;;;;;;;8.77;3.90;;;;;;;0.96;100.00;103166.88;7402353;19;19923;-76
2024/01/28 08:47:42;;;;;;;12.32;5.60;;;;;;;1.01;100.00;103164.91;7402491;19;19922;-76
2024/01/28 08:50:12;;;;;;;10.90;4.80;;;;;;;1.05;100.00;103174.47;7402648;19;19919;-76
2024/01/28 08:52:41;;;;;;;12.38;4.43;;;;;;;1.09;100.00;103171.66;7402025;19;19922;-76
2024/01/28 08:55:13;;;;;;;20.55;7.13;;;;;;;1.12;100.00;103165.38;7402344;19;19955;-76
2024/01/28 08:57:42;;;;;;;16.63;6.93;;;;;;;1.12;100.00;103160.91;7401542;19;19918;-76
2024/01/28 09:00:14;;;;;;;11.57;4.97;;;;;;;1.14;100.00;103152.88;7402230;19;20333;-76
2024/01/28 09:02:43;;;;;;;6.85;3.15;;;;;;;1.16;100.00;103159.03;7401122;19;19923;-76
2024/01/28 09:05:13;;;;;;;12.27;4.22;;;;;;;1.17;100.00;103145.66;7402090;19;19926;-76
2024/01/28 09:07:45;;;;;;;9.90;3.58;;;;;;;1.21;100.00;103157.00;7401315;19;20029;-76
2024/01/28 09:10:18;;;;;;;9.48;3.80;;;;;;;1.23;100.00;103163.16;7398316;19;20509;-76
2024/01/28 09:12:48;;;;;;;11.65;4.32;;;;;;;1.27;100.00;103149.69;7401570;19;19918;-76
2024/01/28 09:15:17;;;;;;;10.82;5.10;;;;;;;1.35;100.00;103152.03;7398856;19;19926;-76
2024/01/28 09:17:46;;;;;;;10.85;4.72;;;;;;;1.38;100.00;103139.50;7401812;19;19914;-76
2024/01/28 09:20:16;;;;;;;7.40;3.40;;;;;;;1.44;100.00;103146.34;7400083;19;19938;-76
2024/01/28 09:22:45;;;;;;;7.47;3.33;;;;;;;1.51;100.00;103131.88;7401201;19;19929;-76
2024/01/28 09:25:17;;;;;;;7.30;3.30;;;;;;;1.59;100.00;103131.59;7401841;19;20319;-76
2024/01/28 09:27:48;;;;;;;;;;;;;;;1.62;100.00;103131.44;7407360;19;19918;-76
2024/01/28 09:30:17;;;;;;;6.93;2.78;;;;;;;1.72;100.00;103127.50;7408676;19;19915;-76
2024/01/28 09:32:49;;;;;;;5.38;3.40;;;;;;;1.83;100.00;103130.53;7403472;19;19930;-76
2024/01/28 09:35:18;;;;;;;10.82;3.70;;;;;;;1.93;100.00;103139.00;7400981;19;19929;-76
2024/01/28 09:37:48;;;;;;;10.30;3.05;;;;;;;2.02;100.00;103130.63;7400622;19;19921;-76
2024/01/28 09:40:21;;;;;;;7.30;3.05;;;;;;;2.12;100.00;103123.94;7400598;19;19918;-76
2024/01/28 09:42:57;;;;;;;6.75;3.72;;;;;;;2.22;100.00;103123.50;7399379;19;19918;-76
2024/01/28 09:45:28;;;;;;;6.55;2.95;;;;;;;2.32;100.00;103115.97;7400402;19;20388;-76
2024/01/28 09:47:58;;;;;;;7.70;3.15;;;;;;;2.43;100.00;103120.78;7399889;19;19933;-76
2024/01/28 09:50:28;;;;;;;6.18;2.72;;;;;;;2.54;100.00;103132.69;7398771;19;20260;-76
2024/01/28 09:52:57;;;;;;;8.35;3.88;;;;;;;2.63;100.00;103121.59;7399435;19;19926;-76
2024/01/28 09:55:29;;;;;;;5.80;3.08;;;;;;;2.78;100.00;103116.50;7399292;19;20272;-76
2024/01/28 09:57:59;;;;;;;6.28;3.50;;;;;;;2.90;100.00;103099.94;7398752;19;19918;-76
2024/01/28 10:00:29;;;;;;;6.65;2.85;;;;;;;3.07;100.00;103105.31;7399068;19;19934;-76
2024/01/28 10:02:58;;;;;;;7.60;2.75;;;;;;;3.23;100.00;103102.78;7399358;19;20355;-76
2024/01/28 10:05:28;;;;;;;8.13;3.55;;;;;;;3.37;100.00;103108.28;7398711;19;19922;-76
2024/01/28 10:08:02;;;;;;;7.72;3.35;;;;;;;3.50;100.00;103109.41;7398833;19;19923;-76
2024/01/28 10:10:36;;;;;;;7.55;2.33;;;;;;;3.62;100.00;103104.31;7398715;19;19948;-76
2024/01/28 10:13:06;;;;;;;6.35;2.97;;;;;;;3.78;100.00;103087.56;7398981;19;19944;-76
2024/01/28 10:15:35;;;;;;;9.25;2.97;;;;;;;3.94;100.00;103084.00;7398508;19;19941;-76
2024/01/28 10:18:06;;;;;;;10.82;3.00;;;;;;;4.12;100.00;103087.53;7398951;19;19928;-76
2024/01/28 10:20:35;;;;;;;5.50;3.55;;;;;;;4.25;98.98;103091.25;7399189;19;19919;-76
2024/01/28 10:23:05;;;;;;;6.07;2.50;;;;;;;4.40;99.04;103081.59;7404767;19;20473;-76
2024/01/28 10:25:37;;;;;;;7.85;2.83;;;;;;;4.54;97.17;103074.53;7405153;19;19922;-76
2024/01/28 10:28:07;;;;;;;5.25;2.33;;;;;;;4.73;98.09;103081.53;7403665;19;19911;-76
2024/01/28 10:30:37;;;;;;;5.88;2.70;;;;;;;4.83;96.66;103078.25;7404938;19;19911;-76
2024/01/28 10:33:07;;;;;;;5.93;2.45;;;;;;;4.83;95.24;103077.41;7404299;19;19924;-75
2024/01/28 10:35:36;;;;;;;5.50;2.65;;;;;;;4.82;95.45;103079.22;7404285;19;19918;-76
2024/01/28 10:38:07;;;;;;;5.63;1.83;;;;;;;4.82;95.73;103071.19;7404488;19;20688;-76
2024/01/28 10:40:42;;;;;;;4.47;2.10;;;;;;;4.76;92.18;103068.00;7404088;19;19922;-76
2024/01/28 10:43:15;;;;;;;6.85;2.42;;;;;;;4.73;93.29;103074.38;7404419;19;19921;-76
2024/01/28 10:45:48;;;;;;;6.32;2.10;;;;;;;4.72;93.00;103063.78;7405054;19;19926;-76
2024/01/28 10:48:20;;;;;;;5.90;2.30;;;;;;;4.68;93.19;103062.22;7405216;19;19918;-77
2024/01/28 10:50:50;;;;;;;;;;;;;;;4.56;90.12;103056.63;7406910;19;19922;-76
2024/01/28 10:53:20;;;;;;;5.68;2.20;;;;;;;4.57;93.21;103049.50;7404511;19;19929;-76
2024/01/28 10:55:53;;;;;;;5.05;2.30;;;;;;;4.55;93.90;103046.03;7404122;19;19926;-76
2024/01/28 10:58:24;;;;;;;7.75;2.28;;;;;;;4.61;95.40;103044.84;7404826;19;19915;-77
2024/01/28 11:00:53;;;;;;;8.70;3.05;;;;;;;4.81;96.03;103039.22;7402765;19;19926;-75
2024/01/28 11:03:22;;;;;;;5.32;1.80;;;;;;;4.97;95.35;103040.94;7404463;19;20249;-76
2024/01/28 11:05:51;;;;;;;4.18;1.60;;;;;;;5.14;94.89;103042.63;7404718;19;20337;-76
2024/01/28 11:08:21;;;;;;;7.93;2.00;;;;;;;5.31;94.98;103042.50;7404485;19;19922;-76
2024/01/28 11:10:53;;;;;;;4.55;2.10;;;;;;;5.48;94.05;103039.72;7404408;19;19923;-76
2024/01/28 11:13:22;;;;;;;3.88;1.85;;;;;;;5.64;93.24;103037.00;7404095;19;19919;-76
2024/01/28 11:15:50;;;;;;;4.75;2.35;;;;;;;5.78;91.27;103038.84;7404204;19;19918;-76
2024/01/28 11:18:19;;;;;;;5.82;2.40;;;;;;;5.90;89.93;103033.63;7403824;19;20003;-76
2024/01/28 11:20:48;;;;;;;5.18;2.25;;;;;;;5.99;87.89;103024.19;7405030;19;19930;-76
2024/01/28 11:23:19;;;;;;;6.03;2.08;;;;;;;6.11;87.52;103026.09;7403109;19;19929;-76
2024/01/28 11:25:47;;;;;;;3.03;1.95;;;;;;;6.22;85.59;103018.25;7403931;19;19925;-76
2024/01/28 11:28:20;;;;;;;7.72;2.38;;;;;;;6.31;83.25;103023.00;7404350;19;19951;-76
2024/01/28 11:30:52;;;;;;;3.05;1.65;;;;;;;6.44;84.22;103031.13;7404541;19;19918;-76
2024/01/28 11:33:21;;;;;;;6.72;2.22;;;;;;;6.53;83.92;103021.66;7401877;19;19911;-76